»·PEaware :: DAL576 KDEN-KAUS

DAL576 :: KDEN-KAUS

FLIGHT INFORMATION

Flight Status: Arrived
Operator:
Delta Air Lines
More flights by this operator :: More flights under this callsign
Pilot: Anonymous 8274 (8274)
Aircraft: BOEING 737-200
(B732)
More flights by this aircraft type
Origin: KDEN Denver Intl
United States
Destination: KAUS Austin Bergstrom Intl
United States
More flights between these airports :: More routes between these airports
Route: PIKES1 PUB J17 PNH J14 IRW J21 ACT BLEWE4
File this flight plan on PilotEdge
Remarks:
Altitude:
(Current/Filed)
33,000ft
Speed:
(Current/Filed)
460kts
Departed: 15-Jun-19 05:51 PM
Arrived: 15-Jun-19 07:47 PM
Distance/Time
Traveled:
674nm/1:55
Distance/Time
To Go:
Arrived

Flight Plot

Page will automatically refresh every two minutes.


Map Options




Map Legend


Flown Route
Filed Route
Departure Airport
Arrival Airport
Navaid (VOR, NDB)
Fix

Horizontal Profiles

Position Reports

Time Latitude Longitude Heading Altitude Ground
Speed
15-Jun-19 17:14 39.854271 -104.674894 186 5379ft 0kts
15-Jun-19 17:16 39.854271 -104.674894 186 5379ft 0kts
15-Jun-19 17:16 39.854271 -104.674894 186 5379ft 0kts
15-Jun-19 17:17 39.854271 -104.674894 186 5379ft 0kts
15-Jun-19 17:18 39.854271 -104.674894 186 5379ft 0kts
15-Jun-19 17:19 39.854271 -104.674894 186 5379ft 0kts
15-Jun-19 17:20 39.854271 -104.674894 186 5379ft 0kts
15-Jun-19 17:21 39.854271 -104.674894 186 5379ft 0kts
15-Jun-19 17:22 39.854271 -104.674894 186 5379ft 0kts
15-Jun-19 17:23 39.854271 -104.674894 186 5379ft 0kts
15-Jun-19 17:24 39.854271 -104.674894 186 5379ft 0kts
15-Jun-19 17:25 39.854271 -104.674894 186 5379ft 0kts
15-Jun-19 17:26 39.854271 -104.674894 186 5379ft 0kts
15-Jun-19 17:27 39.854271 -104.674894 186 5379ft 0kts
15-Jun-19 17:28 39.854271 -104.674894 186 5379ft 0kts
15-Jun-19 17:29 39.854271 -104.674894 186 5379ft 0kts
15-Jun-19 17:30 39.854271 -104.674894 186 5379ft 0kts
15-Jun-19 17:31 39.854271 -104.674894 186 5379ft 0kts
15-Jun-19 17:32 39.854592 -104.674845 186 5379ft 2kts
15-Jun-19 17:33 39.855115 -104.674908 136 5379ft 2kts
15-Jun-19 17:34 39.855224 -104.675256 88 5379ft 0kts
15-Jun-19 17:35 39.855224 -104.675256 88 5379ft 0kts
15-Jun-19 17:36 39.855223 -104.675083 91 5379ft 5kts
15-Jun-19 17:37 39.855196 -104.672708 89 5379ft 10kts
15-Jun-19 17:38 39.855886 -104.669270 91 5379ft 8kts
15-Jun-19 17:39 39.855860 -104.666877 90 5379ft 0kts
15-Jun-19 17:40 39.855860 -104.666877 90 5379ft 0kts
15-Jun-19 17:41 39.855860 -104.666877 90 5379ft 0kts
15-Jun-19 17:42 39.855854 -104.666404 90 5379ft 8kts
15-Jun-19 17:43 39.858090 -104.663484 359 5384ft 21kts
15-Jun-19 17:44 39.865008 -104.662875 82 5384ft 13kts
15-Jun-19 17:45 39.864960 -104.657162 89 5373ft 22kts
15-Jun-19 17:46 39.864892 -104.647865 89 5345ft 29kts
15-Jun-19 17:47 39.864863 -104.642777 90 5327ft 0kts
15-Jun-19 17:48 39.864863 -104.642777 90 5327ft 0kts
15-Jun-19 17:49 39.864787 -104.641471 124 5321ft 10kts
15-Jun-19 17:50 39.849493 -104.641502 181 5345ft 139kts
15-Jun-19 17:51 39.805383 -104.641999 183 6077ft 175kts
15-Jun-19 17:52 39.751149 -104.640630 174 7382ft 229kts
15-Jun-19 17:53 39.680983 -104.620718 167 9285ft 290kts
15-Jun-19 17:54 39.597026 -104.593027 167 11121ft 325kts
15-Jun-19 17:55 39.508221 -104.569220 170 13480ft 332kts
15-Jun-19 17:56 39.417138 -104.541455 168 15351ft 352kts
15-Jun-19 17:57 39.317527 -104.508546 170 16806ft 375kts
15-Jun-19 17:58 39.208865 -104.478488 170 17927ft 406kts
15-Jun-19 17:59 39.097115 -104.447382 170 19533ft 416kts
15-Jun-19 18:00 38.982428 -104.414359 170 20998ft 426kts
15-Jun-19 18:01 38.864805 -104.385905 181 22307ft 428kts
15-Jun-19 18:02 38.745273 -104.385667 185 23491ft 433kts
15-Jun-19 18:03 38.623358 -104.386055 188 24557ft 438kts
15-Jun-19 18:04 38.501427 -104.404060 198 25535ft 438kts
15-Jun-19 18:05 38.379775 -104.428013 182 26481ft 456kts
15-Jun-19 18:06 38.251099 -104.419133 173 27273ft 469kts
15-Jun-19 18:07 38.149348 -104.321741 131 28179ft 481kts
15-Jun-19 18:08 38.045585 -104.224828 152 29819ft 455kts
15-Jun-19 18:09 37.937065 -104.136924 148 30293ft 468kts
15-Jun-19 18:10 37.829404 -104.043379 148 31031ft 473kts
15-Jun-19 18:11 37.719876 -103.949141 150 31819ft 473kts
15-Jun-19 18:12 37.609167 -103.857602 153 32510ft 474kts
15-Jun-19 18:13 37.497129 -103.770041 154 33160ft 476kts
15-Jun-19 18:14 37.379131 -103.689666 161 33168ft 483kts
15-Jun-19 18:15 37.263405 -103.601716 135 33194ft 502kts
15-Jun-19 18:16 37.159798 -103.485680 149 33166ft 494kts
15-Jun-19 18:17 37.046073 -103.385264 149 33165ft 497kts
15-Jun-19 18:18 36.935260 -103.284375 147 33075ft 502kts
15-Jun-19 18:19 36.824057 -103.176659 146 33057ft 502kts
15-Jun-19 18:20 36.712913 -103.069910 146 33056ft 500kts
15-Jun-19 18:21 36.602776 -102.963153 146 33075ft 500kts
15-Jun-19 18:22 36.492829 -102.856532 146 33077ft 501kts
15-Jun-19 18:23 36.382347 -102.749240 146 33073ft 502kts
15-Jun-19 18:24 36.271168 -102.641594 146 32974ft 505kts
15-Jun-19 18:25 36.158825 -102.535291 149 32978ft 504kts
15-Jun-19 18:26 36.041072 -102.440307 151 32978ft 503kts
15-Jun-19 18:27 35.922528 -102.346138 152 32978ft 504kts
15-Jun-19 18:28 35.807190 -102.246718 149 32961ft 504kts
15-Jun-19 18:29 35.696149 -102.140888 142 32966ft 507kts
15-Jun-19 18:30 35.590817 -102.025046 142 32965ft 506kts
15-Jun-19 18:31 35.482556 -101.914484 145 32960ft 501kts
15-Jun-19 18:32 35.369085 -101.815141 150 32943ft 498kts
15-Jun-19 18:33 35.260945 -101.708302 122 32960ft 509kts
15-Jun-19 18:34 35.240796 -101.540626 83 32950ft 502kts
15-Jun-19 18:35 35.249375 -101.368904 81 32950ft 503kts
15-Jun-19 18:36 35.256434 -101.197752 86 32938ft 502kts
15-Jun-19 18:37 35.257196 -101.027198 86 32939ft 498kts
15-Jun-19 18:38 35.261816 -100.858124 84 32942ft 493kts
15-Jun-19 18:39 35.267001 -100.689835 84 32995ft 489kts
15-Jun-19 18:40 35.272278 -100.523303 83 32945ft 488kts
15-Jun-19 18:41 35.279562 -100.355994 83 32879ft 487kts
15-Jun-19 18:42 35.285286 -100.190192 84 32883ft 484kts
15-Jun-19 18:43 35.290907 -100.025030 84 32806ft 483kts
15-Jun-19 18:44 35.296610 -99.860311 83 32807ft 482kts
15-Jun-19 18:45 35.302443 -99.696379 83 32809ft 480kts
15-Jun-19 18:46 35.308522 -99.531037 83 32813ft 483kts
15-Jun-19 18:47 35.314824 -99.366040 83 32824ft 486kts
15-Jun-19 18:48 35.321535 -99.199773 83 32830ft 487kts
15-Jun-19 18:49 35.328455 -99.033939 83 32833ft 488kts
15-Jun-19 18:50 35.335634 -98.866734 83 32809ft 490kts
15-Jun-19 18:51 35.343030 -98.699218 83 32836ft 491kts
15-Jun-19 18:52 35.350656 -98.531728 82 32840ft 494kts
15-Jun-19 18:53 35.355915 -98.362100 87 32834ft 498kts
15-Jun-19 18:54 35.353605 -98.193505 87 32803ft 500kts
15-Jun-19 18:55 35.351466 -98.022469 87 32805ft 500kts
15-Jun-19 18:56 35.349569 -97.850868 86 32834ft 500kts
15-Jun-19 18:57 35.357897 -97.680966 82 32862ft 499kts
15-Jun-19 18:58 35.307252 -97.528945 147 32882ft 492kts
15-Jun-19 18:59 35.184257 -97.467951 173 32881ft 472kts
15-Jun-19 19:00 35.054602 -97.435135 174 32843ft 474kts
15-Jun-19 19:01 34.925258 -97.399792 174 32844ft 477kts
15-Jun-19 19:02 34.796013 -97.368280 177 32893ft 473kts
15-Jun-19 19:03 34.665891 -97.338020 170 32882ft 482kts
15-Jun-19 19:05 34.536498 -97.292112 170 32882ft 482kts
15-Jun-19 19:06 34.408253 -97.239498 165 32883ft 486kts
15-Jun-19 19:07 34.280790 -97.183501 167 32832ft 485kts
15-Jun-19 19:08 34.151331 -97.154730 184 32835ft 468kts
15-Jun-19 19:09 34.022141 -97.155178 188 32832ft 461kts
15-Jun-19 19:10 33.894254 -97.157232 187 32873ft 456kts
15-Jun-19 19:11 33.766925 -97.161127 188 32854ft 455kts
15-Jun-19 19:12 33.640693 -97.162804 188 32855ft 452kts
15-Jun-19 19:13 33.514919 -97.164503 188 32856ft 450kts
15-Jun-19 19:14 33.390121 -97.168963 191 32856ft 445kts
15-Jun-19 19:15 33.266363 -97.177815 189 32830ft 445kts
15-Jun-19 19:16 33.142229 -97.179796 187 32831ft 445kts
15-Jun-19 19:17 33.018510 -97.179240 187 32832ft 444kts
15-Jun-19 19:18 32.894803 -97.178753 187 32831ft 442kts
15-Jun-19 19:19 32.771732 -97.178804 193 32820ft 435kts
15-Jun-19 19:20 32.653969 -97.203177 194 32829ft 429kts
15-Jun-19 19:21 32.533947 -97.213367 188 32854ft 434kts
15-Jun-19 19:22 32.413207 -97.215453 188 32856ft 433kts
15-Jun-19 19:23 32.292465 -97.217619 188 32859ft 433kts
15-Jun-19 19:24 32.171599 -97.222277 191 32875ft 433kts
15-Jun-19 19:25 32.050937 -97.232668 193 32940ft 432kts
15-Jun-19 19:25 31.950308 -97.244894 193 32940ft 434kts
15-Jun-19 19:27 31.808934 -97.260682 189 32934ft 438kts
15-Jun-19 19:28 31.687040 -97.259070 185 30841ft 437kts
15-Jun-19 19:28 31.586527 -97.240782 178 29371ft 430kts
15-Jun-19 19:30 31.443121 -97.231693 182 26304ft 439kts
15-Jun-19 19:31 31.322196 -97.223116 179 24442ft 429kts
15-Jun-19 19:31 31.224000 -97.211426 176 22905ft 423kts
15-Jun-19 19:32 31.112164 -97.231324 201 21053ft 402kts
15-Jun-19 19:33 31.007487 -97.274796 204 19257ft 392kts
15-Jun-19 19:34 30.905811 -97.318586 204 17184ft 383kts
15-Jun-19 19:35 30.808525 -97.361407 204 14094ft 370kts
15-Jun-19 19:36 30.713926 -97.403773 202 13000ft 361kts
15-Jun-19 19:37 30.622691 -97.436361 199 12517ft 331kts
15-Jun-19 19:38 30.536005 -97.467341 200 10671ft 322kts
15-Jun-19 19:39 30.465047 -97.517578 258 8693ft 292kts
15-Jun-19 19:40 30.452187 -97.607588 267 6503ft 278kts
15-Jun-19 19:41 30.405517 -97.674417 186 4081ft 294kts
15-Jun-19 19:42 30.335175 -97.660952 177 3328ft 239kts
15-Jun-19 19:43 30.276179 -97.659587 176 2182ft 171kts
15-Jun-19 19:44 30.235828 -97.658634 178 1138ft 138kts
15-Jun-19 19:45 30.197514 -97.657733 176 491ft 123kts
15-Jun-19 19:46 30.185232 -97.658533 255 487ft 0kts
15-Jun-19 19:47 30.185232 -97.658533 255 487ft 0kts
15-Jun-19 19:48 30.185722 -97.658719 4 487ft 7kts
15-Jun-19 19:49 30.190007 -97.658810 359 487ft 23kts
15-Jun-19 19:50 30.197010 -97.658983 357 487ft 25kts
15-Jun-19 19:51 30.199175 -97.660511 267 487ft 14kts
15-Jun-19 19:52 30.199140 -97.666633 302 487ft 14kts
15-Jun-19 19:53 30.201364 -97.667166 3 487ft 0kts
15-Jun-19 19:54 30.201378 -97.667165 3 487ft 0kts
15-Jun-19 19:55 30.201378 -97.667165 3 487ft 0kts
15-Jun-19 19:56 30.201378 -97.667165 3 487ft 0kts
15-Jun-19 19:57 30.201378 -97.667165 3 487ft 0kts
15-Jun-19 19:58 30.185791 -97.658715 1 487ft 7kts
15-Jun-19 19:59 30.216948 -97.658239 176 788ft 139kts
15-Jun-19 20:00 30.186816 -97.657581 189 487ft 44kts

Navigation Log

Ident Type
Flight plan parsing failed, navigation log unavailable